sensor_id;sensor_type;location;lat;lon;timestamp;temperature;humidity
79489;SHT31;68949;53.176;18.088;2024-01-15T00:01:50;1.40;89.19
79489;SHT31;68949;53.176;18.088;2024-01-15T00:04:17;1.39;89.20
79489;SHT31;68949;53.176;18.088;2024-01-15T00:06:44;1.38;89.19
79489;SHT31;68949;53.176;18.088;2024-01-15T00:09:10;1.36;89.25
79489;SHT31;68949;53.176;18.088;2024-01-15T00:11:39;1.28;89.37
79489;SHT31;68949;53.176;18.088;2024-01-15T00:14:06;1.25;89.54
79489;SHT31;68949;53.176;18.088;2024-01-15T00:16:33;1.23;89.62
79489;SHT31;68949;53.176;18.088;2024-01-15T00:19:02;1.25;89.67
79489;SHT31;68949;53.176;18.088;2024-01-15T00:21:31;1.25;89.62
79489;SHT31;68949;53.176;18.088;2024-01-15T00:23:58;1.23;89.70
79489;SHT31;68949;53.176;18.088;2024-01-15T00:26:25;1.24;89.75
79489;SHT31;68949;53.176;18.088;2024-01-15T00:28:52;1.22;89.79
79489;SHT31;68949;53.176;18.088;2024-01-15T00:31:18;1.21;89.81
79489;SHT31;68949;53.176;18.088;2024-01-15T00:33:45;1.18;89.84
79489;SHT31;68949;53.176;18.088;2024-01-15T00:36:12;1.17;89.95
79489;SHT31;68949;53.176;18.088;2024-01-15T00:38:40;1.17;89.99
79489;SHT31;68949;53.176;18.088;2024-01-15T00:41:07;1.18;90.01
79489;SHT31;68949;53.176;18.088;2024-01-15T00:43:34;1.18;90.00
79489;SHT31;68949;53.176;18.088;2024-01-15T00:46:04;1.18;90.00
79489;SHT31;68949;53.176;18.088;2024-01-15T00:48:31;1.18;90.01
79489;SHT31;68949;53.176;18.088;2024-01-15T00:50:59;1.19;90.02
79489;SHT31;68949;53.176;18.088;2024-01-15T00:53:25;1.22;90.00
79489;SHT31;68949;53.176;18.088;2024-01-15T00:55:52;1.23;89.96
79489;SHT31;68949;53.176;18.088;2024-01-15T00:58:21;1.23;89.94
79489;SHT31;68949;53.176;18.088;2024-01-15T01:00:49;1.25;89.94
79489;SHT31;68949;53.176;18.088;2024-01-15T01:03:16;1.25;89.91
79489;SHT31;68949;53.176;18.088;2024-01-15T01:05:43;1.28;89.93
79489;SHT31;68949;53.176;18.088;2024-01-15T01:08:10;1.27;89.90
79489;SHT31;68949;53.176;18.088;2024-01-15T01:10:38;1.26;89.92
79489;SHT31;68949;53.176;18.088;2024-01-15T01:13:04;1.25;89.90
79489;SHT31;68949;53.176;18.088;2024-01-15T01:15:31;1.20;90.00
79489;SHT31;68949;53.176;18.088;2024-01-15T01:17:58;1.19;90.09
79489;SHT31;68949;53.176;18.088;2024-01-15T01:20:24;1.18;90.09
79489;SHT31;68949;53.176;18.088;2024-01-15T01:22:51;1.18;90.11
79489;SHT31;68949;53.176;18.088;2024-01-15T01:25:18;1.18;90.10
79489;SHT31;68949;53.176;18.088;2024-01-15T01:27:46;1.20;90.12
79489;SHT31;68949;53.176;18.088;2024-01-15T01:30:14;1.21;90.10
79489;SHT31;68949;53.176;18.088;2024-01-15T01:32:42;1.21;90.12
79489;SHT31;68949;53.176;18.088;2024-01-15T01:35:08;1.22;90.11
79489;SHT31;68949;53.176;18.088;2024-01-15T01:37:35;1.22;90.12
79489;SHT31;68949;53.176;18.088;2024-01-15T01:40:02;1.23;90.10
79489;SHT31;68949;53.176;18.088;2024-01-15T01:42:29;1.21;90.14
79489;SHT31;68949;53.176;18.088;2024-01-15T01:44:56;1.23;90.12
79489;SHT31;68949;53.176;18.088;2024-01-15T01:47:23;1.24;90.13
79489;SHT31;68949;53.176;18.088;2024-01-15T01:49:52;1.25;90.09
79489;SHT31;68949;53.176;18.088;2024-01-15T01:52:20;1.26;90.02
79489;SHT31;68949;53.176;18.088;2024-01-15T01:54:48;1.28;89.99
79489;SHT31;68949;53.176;18.088;2024-01-15T01:57:15;1.27;89.95
79489;SHT31;68949;53.176;18.088;2024-01-15T01:59:44;1.27;89.98
79489;SHT31;68949;53.176;18.088;2024-01-15T02:02:13;1.27;89.97
79489;SHT31;68949;53.176;18.088;2024-01-15T02:04:40;1.28;89.90
79489;SHT31;68949;53.176;18.088;2024-01-15T02:07:06;1.31;89.86
79489;SHT31;68949;53.176;18.088;2024-01-15T02:09:33;1.31;89.80
79489;SHT31;68949;53.176;18.088;2024-01-15T02:12:00;1.31;89.80
79489;SHT31;68949;53.176;18.088;2024-01-15T02:14:27;1.33;89.82
79489;SHT31;68949;53.176;18.088;2024-01-15T02:16:54;1.33;89.81
79489;SHT31;68949;53.176;18.088;2024-01-15T02:19:20;1.31;89.79
79489;SHT31;68949;53.176;18.088;2024-01-15T02:21:47;1.31;89.80
79489;SHT31;68949;53.176;18.088;2024-01-15T02:24:14;1.30;89.78
79489;SHT31;68949;53.176;18.088;2024-01-15T02:26:40;1.29;89.75
79489;SHT31;68949;53.176;18.088;2024-01-15T02:29:07;1.28;89.75
79489;SHT31;68949;53.176;18.088;2024-01-15T02:31:35;1.28;89.72
79489;SHT31;68949;53.176;18.088;2024-01-15T02:34:02;1.28;89.70
79489;SHT31;68949;53.176;18.088;2024-01-15T02:36:29;1.29;89.66
79489;SHT31;68949;53.176;18.088;2024-01-15T02:38:56;1.31;89.62
79489;SHT31;68949;53.176;18.088;2024-01-15T02:41:23;1.31;89.57
79489;SHT31;68949;53.176;18.088;2024-01-15T02:43:50;1.32;89.52
79489;SHT31;68949;53.176;18.088;2024-01-15T02:46:17;1.34;89.41
79489;SHT31;68949;53.176;18.088;2024-01-15T02:48:44;1.34;89.40
79489;SHT31;68949;53.176;18.088;2024-01-15T02:51:11;1.34;89.38
79489;SHT31;68949;53.176;18.088;2024-01-15T02:53:38;1.34;89.37
79489;SHT31;68949;53.176;18.088;2024-01-15T02:56:06;1.33;89.31
79489;SHT31;68949;53.176;18.088;2024-01-15T02:58:35;1.33;89.30
79489;SHT31;68949;53.176;18.088;2024-01-15T03:01:01;1.34;89.28
79489;SHT31;68949;53.176;18.088;2024-01-15T03:03:28;1.38;89.15
79489;SHT31;68949;53.176;18.088;2024-01-15T03:05:55;1.38;89.10
79489;SHT31;68949;53.176;18.088;2024-01-15T03:08:22;1.37;89.04
79489;SHT31;68949;53.176;18.088;2024-01-15T03:10:51;1.36;89.02
79489;SHT31;68949;53.176;18.088;2024-01-15T03:13:19;1.32;89.11
79489;SHT31;68949;53.176;18.088;2024-01-15T03:15:46;1.30;89.23
79489;SHT31;68949;53.176;18.088;2024-01-15T03:18:12;1.28;89.32
79489;SHT31;68949;53.176;18.088;2024-01-15T03:20:41;1.25;89.40
79489;SHT31;68949;53.176;18.088;2024-01-15T03:23:09;1.20;89.55
79489;SHT31;68949;53.176;18.088;2024-01-15T03:25:36;1.16;89.74
79489;SHT31;68949;53.176;18.088;2024-01-15T03:28:04;1.13;89.89
79489;SHT31;68949;53.176;18.088;2024-01-15T03:30:34;1.08;90.03
79489;SHT31;68949;53.176;18.088;2024-01-15T03:33:01;1.05;90.14
79489;SHT31;68949;53.176;18.088;2024-01-15T03:35:28;1.01;90.28
79489;SHT31;68949;53.176;18.088;2024-01-15T03:37:59;0.99;90.32
79489;SHT31;68949;53.176;18.088;2024-01-15T03:40:26;0.96;90.42
79489;SHT31;68949;53.176;18.088;2024-01-15T03:42:55;0.94;90.53
79489;SHT31;68949;53.176;18.088;2024-01-15T03:45:23;0.92;90.62
79489;SHT31;68949;53.176;18.088;2024-01-15T03:47:51;0.90;90.63
79489;SHT31;68949;53.176;18.088;2024-01-15T03:50:18;0.90;90.72
79489;SHT31;68949;53.176;18.088;2024-01-15T03:52:45;0.87;90.80
79489;SHT31;68949;53.176;18.088;2024-01-15T03:55:12;0.85;90.94
79489;SHT31;68949;53.176;18.088;2024-01-15T03:57:42;0.83;91.01
79489;SHT31;68949;53.176;18.088;2024-01-15T04:00:11;0.82;91.18
79489;SHT31;68949;53.176;18.088;2024-01-15T04:02:40;0.81;91.21
79489;SHT31;68949;53.176;18.088;2024-01-15T04:05:08;0.78;91.35
79489;SHT31;68949;53.176;18.088;2024-01-15T04:07:37;0.77;91.49
79489;SHT31;68949;53.176;18.088;2024-01-15T04:10:04;0.75;91.59
79489;SHT31;68949;53.176;18.088;2024-01-15T04:12:32;0.75;91.61
79489;SHT31;68949;53.176;18.088;2024-01-15T04:15:00;0.74;91.68
79489;SHT31;68949;53.176;18.088;2024-01-15T04:17:27;0.73;91.71
79489;SHT31;68949;53.176;18.088;2024-01-15T04:19:54;0.74;91.70
79489;SHT31;68949;53.176;18.088;2024-01-15T04:22:24;0.74;91.80
79489;SHT31;68949;53.176;18.088;2024-01-15T04:24:53;0.75;91.78
79489;SHT31;68949;53.176;18.088;2024-01-15T04:27:27;0.74;91.80
79489;SHT31;68949;53.176;18.088;2024-01-15T04:29:55;0.75;91.78
79489;SHT31;68949;53.176;18.088;2024-01-15T04:32:21;0.77;91.71
79489;SHT31;68949;53.176;18.088;2024-01-15T04:34:49;0.79;91.58
79489;SHT31;68949;53.176;18.088;2024-01-15T04:37:15;0.79;91.41
79489;SHT31;68949;53.176;18.088;2024-01-15T04:39:43;0.78;91.20
79489;SHT31;68949;53.176;18.088;2024-01-15T04:42:14;0.79;91.10
79489;SHT31;68949;53.176;18.088;2024-01-15T04:44:40;0.79;90.95
79489;SHT31;68949;53.176;18.088;2024-01-15T04:47:07;0.83;90.77
79489;SHT31;68949;53.176;18.088;2024-01-15T04:49:34;0.85;90.49
79489;SHT31;68949;53.176;18.088;2024-01-15T04:52:00;0.87;90.24
79489;SHT31;68949;53.176;18.088;2024-01-15T04:54:28;0.88;90.04
79489;SHT31;68949;53.176;18.088;2024-01-15T04:56:55;0.89;89.90
79489;SHT31;68949;53.176;18.088;2024-01-15T04:59:24;0.90;89.82
79489;SHT31;68949;53.176;18.088;2024-01-15T05:01:56;0.92;89.71
79489;SHT31;68949;53.176;18.088;2024-01-15T05:04:24;0.94;89.69
79489;SHT31;68949;53.176;18.088;2024-01-15T05:06:51;0.91;89.70
79489;SHT31;68949;53.176;18.088;2024-01-15T05:09:18;0.90;89.63
79489;SHT31;68949;53.176;18.088;2024-01-15T05:11:44;0.90;89.62
79489;SHT31;68949;53.176;18.088;2024-01-15T05:14:11;0.91;89.48
79489;SHT31;68949;53.176;18.088;2024-01-15T05:16:38;0.91;89.23
79489;SHT31;68949;53.176;18.088;2024-01-15T05:19:07;0.89;89.09
79489;SHT31;68949;53.176;18.088;2024-01-15T05:21:34;0.87;89.04
79489;SHT31;68949;53.176;18.088;2024-01-15T05:24:01;0.84;88.92
79489;SHT31;68949;53.176;18.088;2024-01-15T05:26:28;0.82;88.83
79489;SHT31;68949;53.176;18.088;2024-01-15T05:28:55;0.81;88.66
79489;SHT31;68949;53.176;18.088;2024-01-15T05:31:21;0.85;88.60
79489;SHT31;68949;53.176;18.088;2024-01-15T05:34:14;0.86;88.57
79489;SHT31;68949;53.176;18.088;2024-01-15T05:36:43;0.85;88.42
79489;SHT31;68949;53.176;18.088;2024-01-15T05:39:10;0.83;88.39
79489;SHT31;68949;53.176;18.088;2024-01-15T05:41:37;0.84;88.40
79489;SHT31;68949;53.176;18.088;2024-01-15T05:44:04;0.86;88.41
79489;SHT31;68949;53.176;18.088;2024-01-15T05:46:30;0.87;88.38
79489;SHT31;68949;53.176;18.088;2024-01-15T05:48:57;0.86;88.25
79489;SHT31;68949;53.176;18.088;2024-01-15T05:51:24;0.85;88.21
79489;SHT31;68949;53.176;18.088;2024-01-15T05:53:51;0.82;88.12
79489;SHT31;68949;53.176;18.088;2024-01-15T05:56:17;0.82;88.14
79489;SHT31;68949;53.176;18.088;2024-01-15T05:58:44;0.79;88.15
79489;SHT31;68949;53.176;18.088;2024-01-15T06:01:11;0.77;88.17
79489;SHT31;68949;53.176;18.088;2024-01-15T06:03:38;0.77;88.19
79489;SHT31;68949;53.176;18.088;2024-01-15T06:06:09;0.74;88.27
79489;SHT31;68949;53.176;18.088;2024-01-15T06:08:37;0.75;88.32
79489;SHT31;68949;53.176;18.088;2024-01-15T06:11:04;0.74;88.19
79489;SHT31;68949;53.176;18.088;2024-01-15T06:13:32;0.72;88.02
79489;SHT31;68949;53.176;18.088;2024-01-15T06:15:59;0.71;88.00
79489;SHT31;68949;53.176;18.088;2024-01-15T06:18:26;0.70;88.10
79489;SHT31;68949;53.176;18.088;2024-01-15T06:20:53;0.69;88.18
79489;SHT31;68949;53.176;18.088;2024-01-15T06:23:19;0.68;88.29
79489;SHT31;68949;53.176;18.088;2024-01-15T06:25:46;0.69;88.31
79489;SHT31;68949;53.176;18.088;2024-01-15T06:28:13;0.71;88.30
79489;SHT31;68949;53.176;18.088;2024-01-15T06:30:39;0.69;88.30
79489;SHT31;68949;53.176;18.088;2024-01-15T06:33:06;0.70;88.43
79489;SHT31;68949;53.176;18.088;2024-01-15T06:35:33;0.68;88.48
79489;SHT31;68949;53.176;18.088;2024-01-15T06:38:00;0.67;88.58
79489;SHT31;68949;53.176;18.088;2024-01-15T06:40:27;0.67;88.60
79489;SHT31;68949;53.176;18.088;2024-01-15T06:42:53;0.67;88.60
79489;SHT31;68949;53.176;18.088;2024-01-15T06:45:20;0.67;88.60
79489;SHT31;68949;53.176;18.088;2024-01-15T06:47:47;0.68;88.62
79489;SHT31;68949;53.176;18.088;2024-01-15T06:50:13;0.68;88.60
79489;SHT31;68949;53.176;18.088;2024-01-15T06:52:40;0.71;88.57
79489;SHT31;68949;53.176;18.088;2024-01-15T06:55:07;0.71;88.48
79489;SHT31;68949;53.176;18.088;2024-01-15T06:57:34;0.71;88.48
79489;SHT31;68949;53.176;18.088;2024-01-15T07:00:01;0.73;88.43
79489;SHT31;68949;53.176;18.088;2024-01-15T07:02:33;0.75;88.32
79489;SHT31;68949;53.176;18.088;2024-01-15T07:05:00;0.77;88.29
79489;SHT31;68949;53.176;18.088;2024-01-15T07:07:27;0.78;88.15
79489;SHT31;68949;53.176;18.088;2024-01-15T07:09:58;0.78;88.08
79489;SHT31;68949;53.176;18.088;2024-01-15T07:12:25;0.79;88.05
79489;SHT31;68949;53.176;18.088;2024-01-15T07:14:52;0.82;88.03
79489;SHT31;68949;53.176;18.088;2024-01-15T07:17:18;0.83;88.04
79489;SHT31;68949;53.176;18.088;2024-01-15T07:19:45;0.83;88.03
79489;SHT31;68949;53.176;18.088;2024-01-15T07:22:12;0.85;88.11
79489;SHT31;68949;53.176;18.088;2024-01-15T07:24:41;0.84;88.38
79489;SHT31;68949;53.176;18.088;2024-01-15T07:27:08;0.82;88.50
79489;SHT31;68949;53.176;18.088;2024-01-15T07:29:35;0.79;88.57
79489;SHT31;68949;53.176;18.088;2024-01-15T07:32:05;0.79;88.60
79489;SHT31;68949;53.176;18.088;2024-01-15T07:34:34;0.77;88.78
79489;SHT31;68949;53.176;18.088;2024-01-15T07:37:00;0.75;88.98
79489;SHT31;68949;53.176;18.088;2024-01-15T07:39:27;0.74;89.21
79489;SHT31;68949;53.176;18.088;2024-01-15T07:41:55;0.74;89.23
79489;SHT31;68949;53.176;18.088;2024-01-15T07:44:22;0.75;89.20
79489;SHT31;68949;53.176;18.088;2024-01-15T07:46:48;0.76;89.18
79489;SHT31;68949;53.176;18.088;2024-01-15T07:49:16;0.78;89.13
79489;SHT31;68949;53.176;18.088;2024-01-15T07:51:43;0.83;89.02
79489;SHT31;68949;53.176;18.088;2024-01-15T07:54:10;0.85;88.80
79489;SHT31;68949;53.176;18.088;2024-01-15T07:56:57;0.87;88.70
79489;SHT31;68949;53.176;18.088;2024-01-15T07:59:29;0.89;88.67
79489;SHT31;68949;53.176;18.088;2024-01-15T08:01:58;0.92;88.56
79489;SHT31;68949;53.176;18.088;2024-01-15T08:04:25;0.95;88.30
79489;SHT31;68949;53.176;18.088;2024-01-15T08:06:52;0.98;88.09
79489;SHT31;68949;53.176;18.088;2024-01-15T08:09:19;1.01;87.90
79489;SHT31;68949;53.176;18.088;2024-01-15T08:11:46;1.06;87.79
79489;SHT31;68949;53.176;18.088;2024-01-15T08:14:13;1.09;87.62
79489;SHT31;68949;53.176;18.088;2024-01-15T08:16:39;1.10;87.43
79489;SHT31;68949;53.176;18.088;2024-01-15T08:19:06;1.10;87.25
79489;SHT31;68949;53.176;18.088;2024-01-15T08:21:33;1.10;87.32
79489;SHT31;68949;53.176;18.088;2024-01-15T08:24:01;1.15;87.31
79489;SHT31;68949;53.176;18.088;2024-01-15T08:26:29;1.23;87.19
79489;SHT31;68949;53.176;18.088;2024-01-15T08:29:01;1.25;86.95
79489;SHT31;68949;53.176;18.088;2024-01-15T08:31:28;1.27;86.99
79489;SHT31;68949;53.176;18.088;2024-01-15T08:33:59;1.29;86.81
79489;SHT31;68949;53.176;18.088;2024-01-15T08:36:28;1.31;86.70
79489;SHT31;68949;53.176;18.088;2024-01-15T08:38:57;1.37;86.71
79489;SHT31;68949;53.176;18.088;2024-01-15T08:41:24;1.47;86.66
79489;SHT31;68949;53.176;18.088;2024-01-15T08:43:51;1.49;86.40
79489;SHT31;68949;53.176;18.088;2024-01-15T08:46:19;1.47;86.06
79489;SHT31;68949;53.176;18.088;2024-01-15T08:48:49;1.48;86.03
79489;SHT31;68949;53.176;18.088;2024-01-15T08:51:16;1.49;85.84
79489;SHT31;68949;53.176;18.088;2024-01-15T08:53:45;1.52;85.82
79489;SHT31;68949;53.176;18.088;2024-01-15T08:56:11;1.51;85.54
79489;SHT31;68949;53.176;18.088;2024-01-15T08:58:38;1.51;85.53
79489;SHT31;68949;53.176;18.088;2024-01-15T09:01:05;1.52;85.48
79489;SHT31;68949;53.176;18.088;2024-01-15T09:03:32;1.53;85.35
79489;SHT31;68949;53.176;18.088;2024-01-15T09:06:03;1.54;85.47
79489;SHT31;68949;53.176;18.088;2024-01-15T09:08:30;1.54;85.48
79489;SHT31;68949;53.176;18.088;2024-01-15T09:11:02;1.55;85.52
79489;SHT31;68949;53.176;18.088;2024-01-15T09:13:32;1.56;85.49
79489;SHT31;68949;53.176;18.088;2024-01-15T09:16:03;1.50;85.92
79489;SHT31;68949;53.176;18.088;2024-01-15T09:18:33;1.41;86.47
79489;SHT31;68949;53.176;18.088;2024-01-15T09:21:03;1.39;86.63
79489;SHT31;68949;53.176;18.088;2024-01-15T09:23:31;1.41;86.61
79489;SHT31;68949;53.176;18.088;2024-01-15T09:26:03;1.41;86.47
79489;SHT31;68949;53.176;18.088;2024-01-15T09:28:30;1.38;86.36
79489;SHT31;68949;53.176;18.088;2024-01-15T09:31:06;1.35;86.48
79489;SHT31;68949;53.176;18.088;2024-01-15T09:33:35;1.36;86.76
79489;SHT31;68949;53.176;18.088;2024-01-15T09:36:02;1.38;86.74
79489;SHT31;68949;53.176;18.088;2024-01-15T09:38:31;1.38;86.64
79489;SHT31;68949;53.176;18.088;2024-01-15T09:41:03;1.39;86.76
79489;SHT31;68949;53.176;18.088;2024-01-15T09:43:30;1.43;86.75
79489;SHT31;68949;53.176;18.088;2024-01-15T09:46:09;1.46;86.45
79489;SHT31;68949;53.176;18.088;2024-01-15T09:48:44;1.53;86.34
79489;SHT31;68949;53.176;18.088;2024-01-15T09:51:12;1.66;85.87
79489;SHT31;68949;53.176;18.088;2024-01-15T09:53:40;1.72;85.50
79489;SHT31;68949;53.176;18.088;2024-01-15T09:56:13;1.77;85.51
79489;SHT31;68949;53.176;18.088;2024-01-15T09:58:43;1.80;85.28
79489;SHT31;68949;53.176;18.088;2024-01-15T10:01:16;1.79;85.03
79489;SHT31;68949;53.176;18.088;2024-01-15T10:03:50;1.74;85.08
79489;SHT31;68949;53.176;18.088;2024-01-15T10:06:21;1.60;85.35
79489;SHT31;68949;53.176;18.088;2024-01-15T10:08:52;1.43;86.24
79489;SHT31;68949;53.176;18.088;2024-01-15T10:11:23;1.35;86.98
79489;SHT31;68949;53.176;18.088;2024-01-15T10:13:50;1.32;87.09
79489;SHT31;68949;53.176;18.088;2024-01-15T10:16:22;1.30;86.97
79489;SHT31;68949;53.176;18.088;2024-01-15T10:18:58;1.43;86.68
79489;SHT31;68949;53.176;18.088;2024-01-15T10:21:35;1.69;86.25
79489;SHT31;68949;53.176;18.088;2024-01-15T10:24:12;1.83;85.73
79489;SHT31;68949;53.176;18.088;2024-01-15T10:26:41;1.91;85.52
79489;SHT31;68949;53.176;18.088;2024-01-15T10:29:11;2.01;85.26
79489;SHT31;68949;53.176;18.088;2024-01-15T10:31:41;2.10;84.77
79489;SHT31;68949;53.176;18.088;2024-01-15T10:34:12;2.10;84.42
79489;SHT31;68949;53.176;18.088;2024-01-15T10:37:09;2.03;84.04
79489;SHT31;68949;53.176;18.088;2024-01-15T10:39:36;2.00;83.88
79489;SHT31;68949;53.176;18.088;2024-01-15T10:42:03;2.00;83.73
79489;SHT31;68949;53.176;18.088;2024-01-15T10:44:31;2.07;83.65
79489;SHT31;68949;53.176;18.088;2024-01-15T10:46:58;2.11;83.41
79489;SHT31;68949;53.176;18.088;2024-01-15T10:49:25;2.09;83.20
79489;SHT31;68949;53.176;18.088;2024-01-15T10:51:55;2.07;83.28
79489;SHT31;68949;53.176;18.088;2024-01-15T10:54:23;2.05;83.35
79489;SHT31;68949;53.176;18.088;2024-01-15T10:56:53;2.05;83.45
79489;SHT31;68949;53.176;18.088;2024-01-15T10:59:22;2.13;83.47
79489;SHT31;68949;53.176;18.088;2024-01-15T11:01:50;2.12;83.23
79489;SHT31;68949;53.176;18.088;2024-01-15T11:04:21;2.10;83.28
79489;SHT31;68949;53.176;18.088;2024-01-15T11:06:50;2.10;83.37
79489;SHT31;68949;53.176;18.088;2024-01-15T11:09:20;2.13;83.37
79489;SHT31;68949;53.176;18.088;2024-01-15T11:11:47;2.10;83.27
79489;SHT31;68949;53.176;18.088;2024-01-15T11:14:33;1.99;83.53
79489;SHT31;68949;53.176;18.088;2024-01-15T11:17:11;1.81;84.52
79489;SHT31;68949;53.176;18.088;2024-01-15T11:19:43;1.63;85.63
79489;SHT31;68949;53.176;18.088;2024-01-15T11:25:07;1.44;87.04
79489;SHT31;68949;53.176;18.088;2024-01-15T11:27:50;1.39;86.95
79489;SHT31;68949;53.176;18.088;2024-01-15T11:30:18;1.37;86.99
79489;SHT31;68949;53.176;18.088;2024-01-15T11:32:46;1.36;87.08
79489;SHT31;68949;53.176;18.088;2024-01-15T11:35:13;1.36;87.16
79489;SHT31;68949;53.176;18.088;2024-01-15T11:40:18;1.45;87.25
79489;SHT31;68949;53.176;18.088;2024-01-15T11:42:47;1.56;87.13
79489;SHT31;68949;53.176;18.088;2024-01-15T11:45:16;1.62;86.89
79489;SHT31;68949;53.176;18.088;2024-01-15T11:50:41;1.66;86.48
79489;SHT31;68949;53.176;18.088;2024-01-15T11:53:33;1.80;86.02
79489;SHT31;68949;53.176;18.088;2024-01-15T11:56:37;1.84;85.39
79489;SHT31;68949;53.176;18.088;2024-01-15T11:59:10;1.87;85.04
79489;SHT31;68949;53.176;18.088;2024-01-15T12:01:39;1.88;84.61
79489;SHT31;68949;53.176;18.088;2024-01-15T12:04:11;1.86;84.08
79489;SHT31;68949;53.176;18.088;2024-01-15T12:06:47;1.81;83.99
79489;SHT31;68949;53.176;18.088;2024-01-15T12:09:20;1.74;83.65
79489;SHT31;68949;53.176;18.088;2024-01-15T12:11:55;1.52;83.77
79489;SHT31;68949;53.176;18.088;2024-01-15T12:15:04;1.08;84.16
79489;SHT31;68949;53.176;18.088;2024-01-15T12:17:31;0.90;84.33
79489;SHT31;68949;53.176;18.088;2024-01-15T12:19:59;0.89;83.70
79489;SHT31;68949;53.176;18.088;2024-01-15T12:22:26;0.98;82.70
79489;SHT31;68949;53.176;18.088;2024-01-15T12:24:54;1.00;81.85
79489;SHT31;68949;53.176;18.088;2024-01-15T12:27:24;0.94;81.72
79489;SHT31;68949;53.176;18.088;2024-01-15T12:29:55;0.88;81.72
79489;SHT31;68949;53.176;18.088;2024-01-15T12:32:29;0.93;81.88
79489;SHT31;68949;53.176;18.088;2024-01-15T12:35:00;1.03;81.85
79489;SHT31;68949;53.176;18.088;2024-01-15T12:37:29;1.14;81.57
79489;SHT31;68949;53.176;18.088;2024-01-15T12:40:03;1.25;81.72
79489;SHT31;68949;53.176;18.088;2024-01-15T12:42:46;1.34;81.29
79489;SHT31;68949;53.176;18.088;2024-01-15T12:45:15;1.40;81.22
79489;SHT31;68949;53.176;18.088;2024-01-15T12:47:46;1.47;80.88
79489;SHT31;68949;53.176;18.088;2024-01-15T12:50:24;1.52;80.46
79489;SHT31;68949;53.176;18.088;2024-01-15T12:53:01;1.62;80.49
79489;SHT31;68949;53.176;18.088;2024-01-15T12:55:29;1.75;80.43
79489;SHT31;68949;53.176;18.088;2024-01-15T12:57:57;1.84;80.24
79489;SHT31;68949;53.176;18.088;2024-01-15T13:00:24;1.90;79.98
79489;SHT31;68949;53.176;18.088;2024-01-15T13:02:52;2.01;79.94
79489;SHT31;68949;53.176;18.088;2024-01-15T13:05:20;2.02;79.63
79489;SHT31;68949;53.176;18.088;2024-01-15T13:07:50;1.97;79.28
79489;SHT31;68949;53.176;18.088;2024-01-15T13:10:17;1.97;79.84
79489;SHT31;68949;53.176;18.088;2024-01-15T13:12:47;1.93;79.47
79489;SHT31;68949;53.176;18.088;2024-01-15T13:15:14;1.90;79.20
79489;SHT31;68949;53.176;18.088;2024-01-15T13:17:41;1.91;79.25
79489;SHT31;68949;53.176;18.088;2024-01-15T13:20:15;1.88;79.39
79489;SHT31;68949;53.176;18.088;2024-01-15T13:22:42;1.80;79.20
79489;SHT31;68949;53.176;18.088;2024-01-15T13:25:16;1.79;79.44
79489;SHT31;68949;53.176;18.088;2024-01-15T13:27:44;1.73;78.98
79489;SHT31;68949;53.176;18.088;2024-01-15T13:30:12;1.65;78.42
79489;SHT31;68949;53.176;18.088;2024-01-15T13:32:42;1.53;78.89
79489;SHT31;68949;53.176;18.088;2024-01-15T13:35:09;1.43;79.49
79489;SHT31;68949;53.176;18.088;2024-01-15T13:37:39;1.34;79.75
79489;SHT31;68949;53.176;18.088;2024-01-15T13:40:09;1.30;80.02
79489;SHT31;68949;53.176;18.088;2024-01-15T13:42:43;1.27;80.19
79489;SHT31;68949;53.176;18.088;2024-01-15T13:45:12;1.25;80.23
79489;SHT31;68949;53.176;18.088;2024-01-15T13:47:41;1.27;80.43
79489;SHT31;68949;53.176;18.088;2024-01-15T13:50:10;1.31;80.41
79489;SHT31;68949;53.176;18.088;2024-01-15T13:52:38;1.30;80.36
79489;SHT31;68949;53.176;18.088;2024-01-15T13:55:05;1.24;80.34
79489;SHT31;68949;53.176;18.088;2024-01-15T13:57:39;1.19;80.64
79489;SHT31;68949;53.176;18.088;2024-01-15T14:00:06;1.13;80.71
79489;SHT31;68949;53.176;18.088;2024-01-15T14:02:45;1.07;80.94
79489;SHT31;68949;53.176;18.088;2024-01-15T14:05:15;0.98;81.15
79489;SHT31;68949;53.176;18.088;2024-01-15T14:07:46;0.89;80.79
79489;SHT31;68949;53.176;18.088;2024-01-15T14:10:22;0.81;81.43
79489;SHT31;68949;53.176;18.088;2024-01-15T14:12:50;0.71;81.51
79489;SHT31;68949;53.176;18.088;2024-01-15T14:15:21;0.62;82.02
79489;SHT31;68949;53.176;18.088;2024-01-15T14:17:48;0.53;82.16
79489;SHT31;68949;53.176;18.088;2024-01-15T14:20:15;0.42;82.28
79489;SHT31;68949;53.176;18.088;2024-01-15T14:22:44;0.36;82.32
79489;SHT31;68949;53.176;18.088;2024-01-15T14:25:11;0.31;82.30
79489;SHT31;68949;53.176;18.088;2024-01-15T14:27:37;0.31;81.96
79489;SHT31;68949;53.176;18.088;2024-01-15T14:30:05;0.30;81.97
79489;SHT31;68949;53.176;18.088;2024-01-15T14:32:36;0.30;82.01
79489;SHT31;68949;53.176;18.088;2024-01-15T14:35:05;0.30;82.00
79489;SHT31;68949;53.176;18.088;2024-01-15T14:37:37;0.28;82.04
79489;SHT31;68949;53.176;18.088;2024-01-15T14:40:06;0.24;82.11
79489;SHT31;68949;53.176;18.088;2024-01-15T14:42:34;0.21;82.01
79489;SHT31;68949;53.176;18.088;2024-01-15T14:45:01;0.19;81.85
79489;SHT31;68949;53.176;18.088;2024-01-15T14:47:31;0.18;81.91
79489;SHT31;68949;53.176;18.088;2024-01-15T14:50:02;0.17;81.92
79489;SHT31;68949;53.176;18.088;2024-01-15T14:52:29;0.17;81.87
79489;SHT31;68949;53.176;18.088;2024-01-15T14:54:58;0.15;81.69
79489;SHT31;68949;53.176;18.088;2024-01-15T14:57:26;0.14;81.50
79489;SHT31;68949;53.176;18.088;2024-01-15T14:59:53;0.13;81.43
79489;SHT31;68949;53.176;18.088;2024-01-15T15:02:20;0.13;81.59
79489;SHT31;68949;53.176;18.088;2024-01-15T15:04:47;0.12;81.11
79489;SHT31;68949;53.176;18.088;2024-01-15T15:07:13;0.10;80.84
79489;SHT31;68949;53.176;18.088;2024-01-15T15:09:40;0.10;80.81
79489;SHT31;68949;53.176;18.088;2024-01-15T15:12:07;0.09;80.80
79489;SHT31;68949;53.176;18.088;2024-01-15T15:14:35;0.09;80.54
79489;SHT31;68949;53.176;18.088;2024-01-15T15:17:04;0.07;80.51
79489;SHT31;68949;53.176;18.088;2024-01-15T15:19:32;0.06;80.57
79489;SHT31;68949;53.176;18.088;2024-01-15T15:21:59;0.05;80.32
79489;SHT31;68949;53.176;18.088;2024-01-15T15:24:26;0.06;80.41
79489;SHT31;68949;53.176;18.088;2024-01-15T15:26:52;0.07;80.37
79489;SHT31;68949;53.176;18.088;2024-01-15T15:29:19;0.05;79.99
79489;SHT31;68949;53.176;18.088;2024-01-15T15:31:46;0.01;79.97
79489;SHT31;68949;53.176;18.088;2024-01-15T15:34:15;0.00;79.60
79489;SHT31;68949;53.176;18.088;2024-01-15T15:36:42;-0.00;79.36
79489;SHT31;68949;53.176;18.088;2024-01-15T15:39:08;-0.03;79.06
79489;SHT31;68949;53.176;18.088;2024-01-15T15:41:35;-0.07;78.96
79489;SHT31;68949;53.176;18.088;2024-01-15T15:44:03;-0.12;78.77
79489;SHT31;68949;53.176;18.088;2024-01-15T15:46:29;-0.16;77.97
79489;SHT31;68949;53.176;18.088;2024-01-15T15:48:56;-0.21;78.01